sensor_id;sensor_type;location;lat;lon;timestamp;temperature;humidity
74666;DHT22;71408;50.106;8.694;2023-07-29T00:00:16;24.30;60.80
74666;DHT22;71408;50.106;8.694;2023-07-29T00:02:42;24.30;60.90
74666;DHT22;71408;50.106;8.694;2023-07-29T00:05:07;24.20;60.80
74666;DHT22;71408;50.106;8.694;2023-07-29T00:07:33;24.30;60.90
74666;DHT22;71408;50.106;8.694;2023-07-29T00:09:58;24.30;60.80
74666;DHT22;71408;50.106;8.694;2023-07-29T00:12:24;24.20;60.70
74666;DHT22;71408;50.106;8.694;2023-07-29T00:14:49;24.30;60.80
74666;DHT22;71408;50.106;8.694;2023-07-29T00:17:15;24.30;60.70
74666;DHT22;71408;50.106;8.694;2023-07-29T00:19:40;24.20;61.30
74666;DHT22;71408;50.106;8.694;2023-07-29T00:22:06;24.20;61.20
74666;DHT22;71408;50.106;8.694;2023-07-29T00:24:33;24.10;61.80
74666;DHT22;71408;50.106;8.694;2023-07-29T00:26:59;24.20;61.20
74666;DHT22;71408;50.106;8.694;2023-07-29T00:29:24;24.10;61.70
74666;DHT22;71408;50.106;8.694;2023-07-29T00:31:50;24.10;61.30
74666;DHT22;71408;50.106;8.694;2023-07-29T00:34:15;24.10;61.20
74666;DHT22;71408;50.106;8.694;2023-07-29T00:36:47;24.10;61.40
74666;DHT22;71408;50.106;8.694;2023-07-29T00:39:12;24.10;61.70
74666;DHT22;71408;50.106;8.694;2023-07-29T00:41:38;24.10;61.90
74666;DHT22;71408;50.106;8.694;2023-07-29T00:44:04;24.10;61.30
74666;DHT22;71408;50.106;8.694;2023-07-29T00:46:29;24.10;61.20
74666;DHT22;71408;50.106;8.694;2023-07-29T00:48:55;24.10;61.60
74666;DHT22;71408;50.106;8.694;2023-07-29T00:51:20;24.10;62.10
74666;DHT22;71408;50.106;8.694;2023-07-29T00:53:46;24.10;61.30
74666;DHT22;71408;50.106;8.694;2023-07-29T00:56:11;24.10;61.20
74666;DHT22;71408;50.106;8.694;2023-07-29T00:58:37;24.10;61.10
74666;DHT22;71408;50.106;8.694;2023-07-29T01:01:02;24.10;61.10
74666;DHT22;71408;50.106;8.694;2023-07-29T01:03:28;24.20;60.90
74666;DHT22;71408;50.106;8.694;2023-07-29T01:15:01;24.20;61.20
74666;DHT22;71408;50.106;8.694;2023-07-29T01:17:48;24.10;60.90
74666;DHT22;71408;50.106;8.694;2023-07-29T01:20:14;24.10;61.40
74666;DHT22;71408;50.106;8.694;2023-07-29T01:22:40;24.10;60.90
74666;DHT22;71408;50.106;8.694;2023-07-29T01:25:06;24.10;61.40
74666;DHT22;71408;50.106;8.694;2023-07-29T01:27:32;24.10;61.00
74666;DHT22;71408;50.106;8.694;2023-07-29T01:29:58;24.10;61.10
74666;DHT22;71408;50.106;8.694;2023-07-29T01:37:55;24.20;61.10
74666;DHT22;71408;50.106;8.694;2023-07-29T01:40:22;24.20;61.10
74666;DHT22;71408;50.106;8.694;2023-07-29T01:42:48;24.20;61.00
74666;DHT22;71408;50.106;8.694;2023-07-29T01:45:14;24.10;61.00
74666;DHT22;71408;50.106;8.694;2023-07-29T01:47:40;24.10;61.70
74666;DHT22;71408;50.106;8.694;2023-07-29T01:50:07;24.20;60.70
74666;DHT22;71408;50.106;8.694;2023-07-29T01:52:32;24.20;60.50
74666;DHT22;71408;50.106;8.694;2023-07-29T01:54:58;24.30;60.50
74666;DHT22;71408;50.106;8.694;2023-07-29T01:57:23;24.30;60.70
74666;DHT22;71408;50.106;8.694;2023-07-29T01:59:49;24.30;60.40
74666;DHT22;71408;50.106;8.694;2023-07-29T02:02:14;24.30;60.40
74666;DHT22;71408;50.106;8.694;2023-07-29T02:04:40;24.30;60.30
74666;DHT22;71408;50.106;8.694;2023-07-29T02:07:05;24.30;60.20
74666;DHT22;71408;50.106;8.694;2023-07-29T02:09:31;24.30;60.20
74666;DHT22;71408;50.106;8.694;2023-07-29T02:11:57;24.30;60.10
74666;DHT22;71408;50.106;8.694;2023-07-29T02:14:22;24.30;60.00
74666;DHT22;71408;50.106;8.694;2023-07-29T02:16:48;24.30;59.90
74666;DHT22;71408;50.106;8.694;2023-07-29T02:19:14;24.30;59.90
74666;DHT22;71408;50.106;8.694;2023-07-29T02:21:40;24.30;59.90
74666;DHT22;71408;50.106;8.694;2023-07-29T02:24:05;24.30;59.90
74666;DHT22;71408;50.106;8.694;2023-07-29T02:26:31;24.30;60.20
74666;DHT22;71408;50.106;8.694;2023-07-29T02:28:56;24.20;60.00
74666;DHT22;71408;50.106;8.694;2023-07-29T02:31:23;24.20;60.10
74666;DHT22;71408;50.106;8.694;2023-07-29T02:33:48;24.20;60.30
74666;DHT22;71408;50.106;8.694;2023-07-29T02:36:14;24.20;60.20
74666;DHT22;71408;50.106;8.694;2023-07-29T02:38:40;24.20;60.40
74666;DHT22;71408;50.106;8.694;2023-07-29T02:41:06;24.20;60.50
74666;DHT22;71408;50.106;8.694;2023-07-29T02:43:31;24.20;60.30
74666;DHT22;71408;50.106;8.694;2023-07-29T02:45:57;24.20;60.30
74666;DHT22;71408;50.106;8.694;2023-07-29T02:48:22;24.20;60.40
74666;DHT22;71408;50.106;8.694;2023-07-29T02:50:48;24.20;60.20
74666;DHT22;71408;50.106;8.694;2023-07-29T02:53:13;24.20;60.30
74666;DHT22;71408;50.106;8.694;2023-07-29T02:55:39;24.20;60.80
74666;DHT22;71408;50.106;8.694;2023-07-29T02:58:05;24.20;60.70
74666;DHT22;71408;50.106;8.694;2023-07-29T03:00:33;24.20;60.40
74666;DHT22;71408;50.106;8.694;2023-07-29T03:02:59;24.20;60.20
74666;DHT22;71408;50.106;8.694;2023-07-29T03:05:26;24.10;60.70
74666;DHT22;71408;50.106;8.694;2023-07-29T03:07:52;24.20;60.50
74666;DHT22;71408;50.106;8.694;2023-07-29T03:10:17;24.20;60.30
74666;DHT22;71408;50.106;8.694;2023-07-29T03:12:43;24.20;60.40
74666;DHT22;71408;50.106;8.694;2023-07-29T03:15:08;24.20;60.70
74666;DHT22;71408;50.106;8.694;2023-07-29T03:17:34;24.10;61.40
74666;DHT22;71408;50.106;8.694;2023-07-29T03:19:59;24.10;61.30
74666;DHT22;71408;50.106;8.694;2023-07-29T03:22:25;24.10;61.00
74666;DHT22;71408;50.106;8.694;2023-07-29T03:24:50;24.10;61.00
74666;DHT22;71408;50.106;8.694;2023-07-29T03:27:16;24.10;60.90
74666;DHT22;71408;50.106;8.694;2023-07-29T03:29:41;24.10;61.60
74666;DHT22;71408;50.106;8.694;2023-07-29T03:32:07;24.10;61.10
74666;DHT22;71408;50.106;8.694;2023-07-29T03:34:33;24.10;60.80
74666;DHT22;71408;50.106;8.694;2023-07-29T03:37:00;24.10;61.10
74666;DHT22;71408;50.106;8.694;2023-07-29T03:39:26;24.10;61.20
74666;DHT22;71408;50.106;8.694;2023-07-29T03:41:51;24.10;61.20
74666;DHT22;71408;50.106;8.694;2023-07-29T03:44:17;24.00;61.20
74666;DHT22;71408;50.106;8.694;2023-07-29T03:46:44;24.00;61.40
74666;DHT22;71408;50.106;8.694;2023-07-29T03:49:09;24.00;61.00
74666;DHT22;71408;50.106;8.694;2023-07-29T03:51:34;24.00;60.90
74666;DHT22;71408;50.106;8.694;2023-07-29T03:54:00;24.10;61.50
74666;DHT22;71408;50.106;8.694;2023-07-29T03:56:26;24.00;61.30
74666;DHT22;71408;50.106;8.694;2023-07-29T03:58:51;24.10;61.40
74666;DHT22;71408;50.106;8.694;2023-07-29T04:01:17;24.00;61.30
74666;DHT22;71408;50.106;8.694;2023-07-29T04:03:42;24.00;61.10
74666;DHT22;71408;50.106;8.694;2023-07-29T04:06:08;24.10;61.00
74666;DHT22;71408;50.106;8.694;2023-07-29T04:08:33;24.10;60.90
74666;DHT22;71408;50.106;8.694;2023-07-29T04:10:59;24.10;60.70
74666;DHT22;71408;50.106;8.694;2023-07-29T04:13:24;24.10;60.60
74666;DHT22;71408;50.106;8.694;2023-07-29T04:15:50;24.10;61.00
74666;DHT22;71408;50.106;8.694;2023-07-29T04:18:15;24.00;61.20
74666;DHT22;71408;50.106;8.694;2023-07-29T04:20:41;24.10;61.00
74666;DHT22;71408;50.106;8.694;2023-07-29T04:23:06;24.10;60.90
74666;DHT22;71408;50.106;8.694;2023-07-29T04:25:32;24.10;60.70
74666;DHT22;71408;50.106;8.694;2023-07-29T04:27:57;24.10;60.70
74666;DHT22;71408;50.106;8.694;2023-07-29T04:30:23;24.10;61.40
74666;DHT22;71408;50.106;8.694;2023-07-29T04:32:48;24.10;61.20
74666;DHT22;71408;50.106;8.694;2023-07-29T04:35:15;24.10;60.80
74666;DHT22;71408;50.106;8.694;2023-07-29T04:37:40;24.10;61.00
74666;DHT22;71408;50.106;8.694;2023-07-29T04:40:06;24.10;60.80
74666;DHT22;71408;50.106;8.694;2023-07-29T04:42:32;24.10;61.10
74666;DHT22;71408;50.106;8.694;2023-07-29T04:44:57;24.10;60.90
74666;DHT22;71408;50.106;8.694;2023-07-29T04:47:23;24.10;61.20
74666;DHT22;71408;50.106;8.694;2023-07-29T04:49:48;24.10;61.00
74666;DHT22;71408;50.106;8.694;2023-07-29T04:52:14;24.10;61.00
74666;DHT22;71408;50.106;8.694;2023-07-29T04:54:40;24.10;60.90
74666;DHT22;71408;50.106;8.694;2023-07-29T04:57:06;24.10;60.60
74666;DHT22;71408;50.106;8.694;2023-07-29T04:59:31;24.10;60.50
74666;DHT22;71408;50.106;8.694;2023-07-29T05:01:57;24.10;60.90
74666;DHT22;71408;50.106;8.694;2023-07-29T05:04:23;24.10;60.50
74666;DHT22;71408;50.106;8.694;2023-07-29T05:06:48;24.10;60.90
74666;DHT22;71408;50.106;8.694;2023-07-29T05:09:14;24.10;60.80
74666;DHT22;71408;50.106;8.694;2023-07-29T05:11:41;24.00;61.20
74666;DHT22;71408;50.106;8.694;2023-07-29T05:14:06;24.00;61.40
74666;DHT22;71408;50.106;8.694;2023-07-29T05:16:32;24.00;61.00
74666;DHT22;71408;50.106;8.694;2023-07-29T05:18:57;24.00;61.40
74666;DHT22;71408;50.106;8.694;2023-07-29T05:21:23;23.90;61.70
74666;DHT22;71408;50.106;8.694;2023-07-29T05:23:48;24.00;61.30
74666;DHT22;71408;50.106;8.694;2023-07-29T05:26:14;24.00;61.10
74666;DHT22;71408;50.106;8.694;2023-07-29T05:28:39;24.00;61.00
74666;DHT22;71408;50.106;8.694;2023-07-29T05:31:05;24.00;61.90
74666;DHT22;71408;50.106;8.694;2023-07-29T05:33:30;24.00;61.70
74666;DHT22;71408;50.106;8.694;2023-07-29T05:35:55;23.90;62.20
74666;DHT22;71408;50.106;8.694;2023-07-29T05:38:21;23.90;62.50
74666;DHT22;71408;50.106;8.694;2023-07-29T05:40:47;23.90;61.70
74666;DHT22;71408;50.106;8.694;2023-07-29T05:43:13;23.90;61.80
74666;DHT22;71408;50.106;8.694;2023-07-29T05:45:39;24.00;61.80
74666;DHT22;71408;50.106;8.694;2023-07-29T05:48:05;24.00;62.40
74666;DHT22;71408;50.106;8.694;2023-07-29T05:50:30;23.90;62.70
74666;DHT22;71408;50.106;8.694;2023-07-29T05:52:56;23.90;62.50
74666;DHT22;71408;50.106;8.694;2023-07-29T05:55:21;23.90;62.70
74666;DHT22;71408;50.106;8.694;2023-07-29T05:57:47;23.90;62.30
74666;DHT22;71408;50.106;8.694;2023-07-29T06:00:12;23.90;62.50
74666;DHT22;71408;50.106;8.694;2023-07-29T06:02:38;23.90;62.60
74666;DHT22;71408;50.106;8.694;2023-07-29T06:05:06;23.90;62.20
74666;DHT22;71408;50.106;8.694;2023-07-29T06:07:31;24.00;62.50
74666;DHT22;71408;50.106;8.694;2023-07-29T06:09:59;23.90;62.40
74666;DHT22;71408;50.106;8.694;2023-07-29T06:12:24;23.90;62.00
74666;DHT22;71408;50.106;8.694;2023-07-29T06:14:50;23.90;61.90
74666;DHT22;71408;50.106;8.694;2023-07-29T06:17:15;24.00;62.50
74666;DHT22;71408;50.106;8.694;2023-07-29T06:19:41;23.90;62.20
74666;DHT22;71408;50.106;8.694;2023-07-29T06:22:06;23.90;62.00
74666;DHT22;71408;50.106;8.694;2023-07-29T06:24:32;23.90;62.20
74666;DHT22;71408;50.106;8.694;2023-07-29T06:26:58;23.90;62.00
74666;DHT22;71408;50.106;8.694;2023-07-29T06:29:23;24.00;62.20
74666;DHT22;71408;50.106;8.694;2023-07-29T06:31:49;24.00;62.30
74666;DHT22;71408;50.106;8.694;2023-07-29T06:34:16;23.90;62.80
74666;DHT22;71408;50.106;8.694;2023-07-29T06:36:42;23.90;62.70
74666;DHT22;71408;50.106;8.694;2023-07-29T06:39:07;23.90;62.60
74666;DHT22;71408;50.106;8.694;2023-07-29T06:41:33;23.90;63.00
74666;DHT22;71408;50.106;8.694;2023-07-29T06:43:58;23.90;62.10
74666;DHT22;71408;50.106;8.694;2023-07-29T06:46:24;24.00;62.00
74666;DHT22;71408;50.106;8.694;2023-07-29T06:48:49;23.90;62.10
74666;DHT22;71408;50.106;8.694;2023-07-29T06:51:15;23.90;63.10
74666;DHT22;71408;50.106;8.694;2023-07-29T06:53:40;23.90;62.10
74666;DHT22;71408;50.106;8.694;2023-07-29T06:56:06;23.90;62.00
74666;DHT22;71408;50.106;8.694;2023-07-29T06:58:31;24.00;62.30
74666;DHT22;71408;50.106;8.694;2023-07-29T07:00:57;23.90;63.20
74666;DHT22;71408;50.106;8.694;2023-07-29T07:03:22;23.90;62.50
74666;DHT22;71408;50.106;8.694;2023-07-29T07:05:48;23.90;63.10
74666;DHT22;71408;50.106;8.694;2023-07-29T07:08:13;23.90;62.90
74666;DHT22;71408;50.106;8.694;2023-07-29T07:10:39;23.90;63.40
74666;DHT22;71408;50.106;8.694;2023-07-29T07:13:04;23.90;63.10
74666;DHT22;71408;50.106;8.694;2023-07-29T07:15:30;23.90;63.20
74666;DHT22;71408;50.106;8.694;2023-07-29T07:17:55;23.80;63.50
74666;DHT22;71408;50.106;8.694;2023-07-29T07:20:21;23.80;63.30
74666;DHT22;71408;50.106;8.694;2023-07-29T07:22:46;23.90;62.90
74666;DHT22;71408;50.106;8.694;2023-07-29T07:25:12;23.90;62.40
74666;DHT22;71408;50.106;8.694;2023-07-29T07:27:37;23.90;62.20
74666;DHT22;71408;50.106;8.694;2023-07-29T07:30:03;24.00;63.20
74666;DHT22;71408;50.106;8.694;2023-07-29T07:32:29;23.90;63.40
74666;DHT22;71408;50.106;8.694;2023-07-29T07:34:54;23.90;63.20
74666;DHT22;71408;50.106;8.694;2023-07-29T07:37:20;23.90;62.90
74666;DHT22;71408;50.106;8.694;2023-07-29T07:39:45;23.90;63.00
74666;DHT22;71408;50.106;8.694;2023-07-29T07:42:11;23.90;63.40
74666;DHT22;71408;50.106;8.694;2023-07-29T07:44:36;23.90;63.50
74666;DHT22;71408;50.106;8.694;2023-07-29T07:47:01;23.90;63.50
74666;DHT22;71408;50.106;8.694;2023-07-29T07:49:27;23.90;63.50
74666;DHT22;71408;50.106;8.694;2023-07-29T07:51:52;23.90;64.00
74666;DHT22;71408;50.106;8.694;2023-07-29T07:54:18;23.90;64.10
74666;DHT22;71408;50.106;8.694;2023-07-29T07:56:43;23.90;63.80
74666;DHT22;71408;50.106;8.694;2023-07-29T07:59:09;23.90;63.70
74666;DHT22;71408;50.106;8.694;2023-07-29T08:01:35;23.90;64.00
74666;DHT22;71408;50.106;8.694;2023-07-29T08:04:01;23.90;63.70
74666;DHT22;71408;50.106;8.694;2023-07-29T08:06:26;23.90;64.20
74666;DHT22;71408;50.106;8.694;2023-07-29T08:08:52;23.80;64.20
74666;DHT22;71408;50.106;8.694;2023-07-29T08:11:17;23.80;64.40
74666;DHT22;71408;50.106;8.694;2023-07-29T08:13:43;23.80;64.30
74666;DHT22;71408;50.106;8.694;2023-07-29T08:16:08;23.80;64.20
74666;DHT22;71408;50.106;8.694;2023-07-29T08:18:34;23.80;64.40
74666;DHT22;71408;50.106;8.694;2023-07-29T08:21:00;23.80;63.50
74666;DHT22;71408;50.106;8.694;2023-07-29T08:23:32;23.90;63.50
74666;DHT22;71408;50.106;8.694;2023-07-29T08:25:58;23.90;64.40
74666;DHT22;71408;50.106;8.694;2023-07-29T08:28:30;23.90;64.30
74666;DHT22;71408;50.106;8.694;2023-07-29T08:30:56;23.90;64.10
74666;DHT22;71408;50.106;8.694;2023-07-29T08:33:22;23.90;64.10
74666;DHT22;71408;50.106;8.694;2023-07-29T08:35:47;23.90;64.20
74666;DHT22;71408;50.106;8.694;2023-07-29T08:38:13;23.90;64.90
74666;DHT22;71408;50.106;8.694;2023-07-29T08:40:42;23.90;64.30
74666;DHT22;71408;50.106;8.694;2023-07-29T08:43:07;23.90;64.30
74666;DHT22;71408;50.106;8.694;2023-07-29T08:45:34;23.90;64.00
74666;DHT22;71408;50.106;8.694;2023-07-29T08:48:00;23.90;63.90
74666;DHT22;71408;50.106;8.694;2023-07-29T08:50:27;23.90;63.70
74666;DHT22;71408;50.106;8.694;2023-07-29T08:52:53;23.90;64.60
74666;DHT22;71408;50.106;8.694;2023-07-29T08:55:19;23.90;65.30
74666;DHT22;71408;50.106;8.694;2023-07-29T08:57:44;23.90;64.90
74666;DHT22;71408;50.106;8.694;2023-07-29T09:00:11;23.90;65.40
74666;DHT22;71408;50.106;8.694;2023-07-29T09:02:37;23.90;64.90
74666;DHT22;71408;50.106;8.694;2023-07-29T09:05:02;23.90;65.10
74666;DHT22;71408;50.106;8.694;2023-07-29T09:07:28;23.90;65.50
74666;DHT22;71408;50.106;8.694;2023-07-29T09:09:54;23.90;65.50
74666;DHT22;71408;50.106;8.694;2023-07-29T09:12:19;23.90;65.00
74666;DHT22;71408;50.106;8.694;2023-07-29T09:14:45;23.90;64.70
74666;DHT22;71408;50.106;8.694;2023-07-29T09:17:10;23.90;65.20
74666;DHT22;71408;50.106;8.694;2023-07-29T09:19:36;23.90;65.30
74666;DHT22;71408;50.106;8.694;2023-07-29T09:22:01;24.00;64.20
74666;DHT22;71408;50.106;8.694;2023-07-29T09:24:27;24.00;64.90
74666;DHT22;71408;50.106;8.694;2023-07-29T09:26:55;24.10;64.70
74666;DHT22;71408;50.106;8.694;2023-07-29T09:29:23;24.00;64.40
74666;DHT22;71408;50.106;8.694;2023-07-29T09:31:52;24.10;64.60
74666;DHT22;71408;50.106;8.694;2023-07-29T09:34:18;24.10;63.90
74666;DHT22;71408;50.106;8.694;2023-07-29T09:36:43;24.10;64.10
74666;DHT22;71408;50.106;8.694;2023-07-29T09:39:12;24.10;63.70
74666;DHT22;71408;50.106;8.694;2023-07-29T09:41:38;24.10;63.80
74666;DHT22;71408;50.106;8.694;2023-07-29T09:44:04;24.10;63.70
74666;DHT22;71408;50.106;8.694;2023-07-29T09:46:33;24.10;63.40
74666;DHT22;71408;50.106;8.694;2023-07-29T09:48:58;24.20;63.10
74666;DHT22;71408;50.106;8.694;2023-07-29T09:51:24;24.20;63.10
74666;DHT22;71408;50.106;8.694;2023-07-29T09:53:50;24.20;63.40
74666;DHT22;71408;50.106;8.694;2023-07-29T09:56:15;24.20;63.30
74666;DHT22;71408;50.106;8.694;2023-07-29T09:58:44;24.30;63.10
74666;DHT22;71408;50.106;8.694;2023-07-29T10:01:11;24.30;63.10
74666;DHT22;71408;50.106;8.694;2023-07-29T10:03:36;24.30;63.50
74666;DHT22;71408;50.106;8.694;2023-07-29T10:06:02;24.30;63.00
74666;DHT22;71408;50.106;8.694;2023-07-29T10:08:29;24.30;63.40
74666;DHT22;71408;50.106;8.694;2023-07-29T10:10:55;24.30;63.20
74666;DHT22;71408;50.106;8.694;2023-07-29T10:13:23;24.30;63.40
74666;DHT22;71408;50.106;8.694;2023-07-29T10:15:49;24.40;62.50
74666;DHT22;71408;50.106;8.694;2023-07-29T10:18:15;24.30;63.30
74666;DHT22;71408;50.106;8.694;2023-07-29T10:20:41;24.30;63.40
74666;DHT22;71408;50.106;8.694;2023-07-29T10:23:08;24.30;63.40
74666;DHT22;71408;50.106;8.694;2023-07-29T10:25:38;24.30;62.50
74666;DHT22;71408;50.106;8.694;2023-07-29T10:28:07;24.40;64.20
74666;DHT22;71408;50.106;8.694;2023-07-29T10:30:33;24.40;63.40
74666;DHT22;71408;50.106;8.694;2023-07-29T10:33:01;24.40;62.30
74666;DHT22;71408;50.106;8.694;2023-07-29T10:35:27;24.50;62.10
74666;DHT22;71408;50.106;8.694;2023-07-29T10:37:52;24.50;62.70
74666;DHT22;71408;50.106;8.694;2023-07-29T10:40:18;24.50;62.40
74666;DHT22;71408;50.106;8.694;2023-07-29T10:43:01;24.50;62.30
74666;DHT22;71408;50.106;8.694;2023-07-29T10:45:39;24.50;62.90
74666;DHT22;71408;50.106;8.694;2023-07-29T10:48:05;24.50;62.30
74666;DHT22;71408;50.106;8.694;2023-07-29T10:50:31;24.60;62.60
74666;DHT22;71408;50.106;8.694;2023-07-29T10:52:57;24.60;61.90
74666;DHT22;71408;50.106;8.694;2023-07-29T10:55:29;24.70;61.90
74666;DHT22;71408;50.106;8.694;2023-07-29T10:58:05;24.70;61.60
74666;DHT22;71408;50.106;8.694;2023-07-29T11:00:31;24.70;61.70
74666;DHT22;71408;50.106;8.694;2023-07-29T11:03:07;24.70;61.90
74666;DHT22;71408;50.106;8.694;2023-07-29T11:05:49;24.70;61.50
74666;DHT22;71408;50.106;8.694;2023-07-29T11:08:35;24.80;61.40
74666;DHT22;71408;50.106;8.694;2023-07-29T11:11:06;24.80;61.40
74666;DHT22;71408;50.106;8.694;2023-07-29T11:13:35;24.80;61.50
74666;DHT22;71408;50.106;8.694;2023-07-29T11:16:01;24.80;61.40
74666;DHT22;71408;50.106;8.694;2023-07-29T11:18:28;24.70;61.60
74666;DHT22;71408;50.106;8.694;2023-07-29T11:20:54;24.70;62.50
74666;DHT22;71408;50.106;8.694;2023-07-29T11:23:26;24.70;62.70
74666;DHT22;71408;50.106;8.694;2023-07-29T11:25:52;24.60;62.80
74666;DHT22;71408;50.106;8.694;2023-07-29T11:28:18;24.60;62.70
74666;DHT22;71408;50.106;8.694;2023-07-29T11:30:43;24.60;62.70
74666;DHT22;71408;50.106;8.694;2023-07-29T11:33:09;24.60;61.70
74666;DHT22;71408;50.106;8.694;2023-07-29T11:35:35;24.60;63.00
74666;DHT22;71408;50.106;8.694;2023-07-29T11:38:00;24.60;63.00
74666;DHT22;71408;50.106;8.694;2023-07-29T11:40:26;24.60;61.60
74666;DHT22;71408;50.106;8.694;2023-07-29T11:42:51;24.70;61.90
74666;DHT22;71408;50.106;8.694;2023-07-29T11:45:17;24.70;61.70
74666;DHT22;71408;50.106;8.694;2023-07-29T11:47:43;24.70;61.70
74666;DHT22;71408;50.106;8.694;2023-07-29T11:50:09;24.80;61.60
74666;DHT22;71408;50.106;8.694;2023-07-29T11:52:35;24.80;62.20
74666;DHT22;71408;50.106;8.694;2023-07-29T11:55:01;24.80;61.90
74666;DHT22;71408;50.106;8.694;2023-07-29T11:57:28;24.80;61.80
74666;DHT22;71408;50.106;8.694;2023-07-29T11:59:54;24.80;61.50
74666;DHT22;71408;50.106;8.694;2023-07-29T12:02:20;24.80;61.50
74666;DHT22;71408;50.106;8.694;2023-07-29T12:04:47;24.80;61.30
74666;DHT22;71408;50.106;8.694;2023-07-29T12:07:13;24.90;61.70
74666;DHT22;71408;50.106;8.694;2023-07-29T12:09:39;25.00;61.10
74666;DHT22;71408;50.106;8.694;2023-07-29T12:12:05;25.00;60.90
74666;DHT22;71408;50.106;8.694;2023-07-29T12:14:31;25.00;60.80
74666;DHT22;71408;50.106;8.694;2023-07-29T12:16:59;25.10;60.90
74666;DHT22;71408;50.106;8.694;2023-07-29T12:19:30;25.10;61.10
74666;DHT22;71408;50.106;8.694;2023-07-29T12:21:56;25.00;60.70
74666;DHT22;71408;50.106;8.694;2023-07-29T12:24:22;25.00;60.70
74666;DHT22;71408;50.106;8.694;2023-07-29T12:26:47;25.10;60.70
74666;DHT22;71408;50.106;8.694;2023-07-29T12:29:17;25.10;60.40
74666;DHT22;71408;50.106;8.694;2023-07-29T12:31:45;25.10;60.30
74666;DHT22;71408;50.106;8.694;2023-07-29T12:34:16;25.10;60.30
74666;DHT22;71408;50.106;8.694;2023-07-29T12:36:43;25.20;60.00
74666;DHT22;71408;50.106;8.694;2023-07-29T12:39:18;25.30;59.80
74666;DHT22;71408;50.106;8.694;2023-07-29T12:41:44;25.30;59.80
74666;DHT22;71408;50.106;8.694;2023-07-29T12:44:09;25.30;59.70
74666;DHT22;71408;50.106;8.694;2023-07-29T12:46:35;25.30;60.20
74666;DHT22;71408;50.106;8.694;2023-07-29T12:49:00;25.40;59.50
74666;DHT22;71408;50.106;8.694;2023-07-29T12:51:26;25.40;59.40
74666;DHT22;71408;50.106;8.694;2023-07-29T12:53:53;25.40;59.10
74666;DHT22;71408;50.106;8.694;2023-07-29T12:56:18;25.50;58.90
74666;DHT22;71408;50.106;8.694;2023-07-29T12:58:44;25.50;58.80
74666;DHT22;71408;50.106;8.694;2023-07-29T13:01:09;25.50;58.50
74666;DHT22;71408;50.106;8.694;2023-07-29T13:03:36;25.50;58.40
74666;DHT22;71408;50.106;8.694;2023-07-29T13:06:02;25.50;58.30
74666;DHT22;71408;50.106;8.694;2023-07-29T13:08:29;25.50;58.80
74666;DHT22;71408;50.106;8.694;2023-07-29T13:10:55;25.40;58.20
74666;DHT22;71408;50.106;8.694;2023-07-29T13:13:20;25.40;58.10
74666;DHT22;71408;50.106;8.694;2023-07-29T13:15:46;25.40;58.10
74666;DHT22;71408;50.106;8.694;2023-07-29T13:18:11;25.40;58.00
74666;DHT22;71408;50.106;8.694;2023-07-29T13:20:37;25.40;58.10
74666;DHT22;71408;50.106;8.694;2023-07-29T13:23:02;25.40;58.10
74666;DHT22;71408;50.106;8.694;2023-07-29T13:25:28;25.30;57.70
74666;DHT22;71408;50.106;8.694;2023-07-29T13:27:53;25.30;58.50
74666;DHT22;71408;50.106;8.694;2023-07-29T13:30:19;25.30;57.70
74666;DHT22;71408;50.106;8.694;2023-07-29T13:32:44;25.30;57.70
74666;DHT22;71408;50.106;8.694;2023-07-29T13:35:10;25.30;57.80
74666;DHT22;71408;50.106;8.694;2023-07-29T13:37:35;25.40;57.80
74666;DHT22;71408;50.106;8.694;2023-07-29T13:40:01;25.40;57.80
74666;DHT22;71408;50.106;8.694;2023-07-29T13:42:26;25.40;57.40
74666;DHT22;71408;50.106;8.694;2023-07-29T13:44:52;25.40;57.30
74666;DHT22;71408;50.106;8.694;2023-07-29T13:47:17;25.40;57.00
74666;DHT22;71408;50.106;8.694;2023-07-29T13:49:43;25.40;56.80
74666;DHT22;71408;50.106;8.694;2023-07-29T13:52:08;25.50;56.50
74666;DHT22;71408;50.106;8.694;2023-07-29T13:54:34;25.50;56.20
74666;DHT22;71408;50.106;8.694;2023-07-29T13:56:59;25.50;55.90
74666;DHT22;71408;50.106;8.694;2023-07-29T13:59:24;25.50;56.10
74666;DHT22;71408;50.106;8.694;2023-07-29T14:01:50;25.40;56.20
74666;DHT22;71408;50.106;8.694;2023-07-29T14:04:15;25.50;56.20
74666;DHT22;71408;50.106;8.694;2023-07-29T14:06:41;25.40;56.00
74666;DHT22;71408;50.106;8.694;2023-07-29T14:09:06;25.40;56.10
74666;DHT22;71408;50.106;8.694;2023-07-29T14:11:32;25.40;56.20
74666;DHT22;71408;50.106;8.694;2023-07-29T14:13:57;25.40;56.10
74666;DHT22;71408;50.106;8.694;2023-07-29T14:16:23;25.40;55.80
74666;DHT22;71408;50.106;8.694;2023-07-29T14:18:48;25.50;55.80
74666;DHT22;71408;50.106;8.694;2023-07-29T14:21:14;25.50;55.80
74666;DHT22;71408;50.106;8.694;2023-07-29T14:23:39;25.50;55.50
74666;DHT22;71408;50.106;8.694;2023-07-29T14:26:04;25.50;55.60
74666;DHT22;71408;50.106;8.694;2023-07-29T14:28:30;25.50;55.30
74666;DHT22;71408;50.106;8.694;2023-07-29T14:30:56;25.50;55.30
74666;DHT22;71408;50.106;8.694;2023-07-29T14:33:21;25.50;55.00
74666;DHT22;71408;50.106;8.694;2023-07-29T14:35:47;25.50;55.10
74666;DHT22;71408;50.106;8.694;2023-07-29T14:38:12;25.50;54.90
74666;DHT22;71408;50.106;8.694;2023-07-29T14:40:37;25.50;54.90
74666;DHT22;71408;50.106;8.694;2023-07-29T14:43:03;25.50;54.80
74666;DHT22;71408;50.106;8.694;2023-07-29T14:45:28;25.50;54.70
74666;DHT22;71408;50.106;8.694;2023-07-29T14:47:54;25.50;54.70
74666;DHT22;71408;50.106;8.694;2023-07-29T14:50:19;25.50;54.70
74666;DHT22;71408;50.106;8.694;2023-07-29T14:52:45;25.50;54.40
74666;DHT22;71408;50.106;8.694;2023-07-29T14:55:10;25.50;54.50
74666;DHT22;71408;50.106;8.694;2023-07-29T14:57:36;25.50;54.50
74666;DHT22;71408;50.106;8.694;2023-07-29T15:00:01;25.60;54.40
74666;DHT22;71408;50.106;8.694;2023-07-29T15:02:28;25.50;54.20
74666;DHT22;71408;50.106;8.694;2023-07-29T15:04:55;25.50;54.10
74666;DHT22;71408;50.106;8.694;2023-07-29T15:07:20;25.50;54.00
74666;DHT22;71408;50.106;8.694;2023-07-29T15:09:45;25.50;54.00
74666;DHT22;71408;50.106;8.694;2023-07-29T15:12:11;25.50;53.90
74666;DHT22;71408;50.106;8.694;2023-07-29T15:14:37;25.50;53.90
74666;DHT22;71408;50.106;8.694;2023-07-29T15:17:02;25.50;54.00
74666;DHT22;71408;50.106;8.694;2023-07-29T15:19:28;25.50;53.90
74666;DHT22;71408;50.106;8.694;2023-07-29T15:21:53;25.50;53.70
74666;DHT22;71408;50.106;8.694;2023-07-29T15:24:19;25.50;53.60
74666;DHT22;71408;50.106;8.694;2023-07-29T15:26:44;25.50;53.60
74666;DHT22;71408;50.106;8.694;2023-07-29T15:29:11;25.50;53.70
74666;DHT22;71408;50.106;8.694;2023-07-29T15:31:37;25.50;53.90
74666;DHT22;71408;50.106;8.694;2023-07-29T15:34:04;25.50;53.90
74666;DHT22;71408;50.106;8.694;2023-07-29T15:36:30;25.50;53.70